sensor_id;sensor_type;location;lat;lon;timestamp;temperature;humidity
21897;DHT22;11113;48.662;9.056;2022-07-22T06:44:17;23.90;99.90
21897;DHT22;11113;48.662;9.056;2022-07-22T06:46:46;24.90;99.90
21897;DHT22;11113;48.662;9.056;2022-07-22T06:49:12;25.60;99.90
21897;DHT22;11113;48.662;9.056;2022-07-22T06:51:38;26.10;99.90
21897;DHT22;11113;48.662;9.056;2022-07-22T06:54:04;26.20;99.90
21897;DHT22;11113;48.662;9.056;2022-07-22T06:56:29;26.20;99.90
21897;DHT22;11113;48.662;9.056;2022-07-22T06:58:55;26.20;99.90
21897;DHT22;11113;48.662;9.056;2022-07-22T07:01:21;26.30;99.90
21897;DHT22;11113;48.662;9.056;2022-07-22T07:03:47;26.40;99.90
21897;DHT22;11113;48.662;9.056;2022-07-22T07:06:12;26.30;99.90
21897;DHT22;11113;48.662;9.056;2022-07-22T07:08:39;26.40;99.90
21897;DHT22;11113;48.662;9.056;2022-07-22T07:11:06;26.40;99.90
21897;DHT22;11113;48.662;9.056;2022-07-22T07:13:32;26.40;99.90
21897;DHT22;11113;48.662;9.056;2022-07-22T07:15:58;26.50;99.90
21897;DHT22;11113;48.662;9.056;2022-07-22T07:18:24;26.50;99.90
21897;DHT22;11113;48.662;9.056;2022-07-22T07:20:50;26.50;99.90
21897;DHT22;11113;48.662;9.056;2022-07-22T07:23:16;26.50;99.90
21897;DHT22;11113;48.662;9.056;2022-07-22T07:25:42;26.50;99.90
21897;DHT22;11113;48.662;9.056;2022-07-22T07:28:08;26.50;99.90
21897;DHT22;11113;48.662;9.056;2022-07-22T07:30:34;26.50;99.90
21897;DHT22;11113;48.662;9.056;2022-07-22T07:33:00;26.50;99.90
21897;DHT22;11113;48.662;9.056;2022-07-22T07:35:27;26.60;99.90
21897;DHT22;11113;48.662;9.056;2022-07-22T07:37:53;26.60;99.90
21897;DHT22;11113;48.662;9.056;2022-07-22T07:40:21;26.60;99.90
21897;DHT22;11113;48.662;9.056;2022-07-22T07:42:47;26.70;99.90
21897;DHT22;11113;48.662;9.056;2022-07-22T07:45:13;26.70;99.90
21897;DHT22;11113;48.662;9.056;2022-07-22T07:47:42;26.60;99.90
21897;DHT22;11113;48.662;9.056;2022-07-22T07:50:09;26.60;99.90
21897;DHT22;11113;48.662;9.056;2022-07-22T07:52:39;26.60;99.90
21897;DHT22;11113;48.662;9.056;2022-07-22T07:55:07;26.60;99.90
21897;DHT22;11113;48.662;9.056;2022-07-22T07:57:34;26.60;99.90
21897;DHT22;11113;48.662;9.056;2022-07-22T08:00:04;26.60;99.90
21897;DHT22;11113;48.662;9.056;2022-07-22T08:02:33;26.60;99.90
21897;DHT22;11113;48.662;9.056;2022-07-22T08:04:59;26.60;99.90
21897;DHT22;11113;48.662;9.056;2022-07-22T08:07:28;26.60;99.90
21897;DHT22;11113;48.662;9.056;2022-07-22T08:09:57;26.60;99.90
21897;DHT22;11113;48.662;9.056;2022-07-22T08:12:23;26.60;99.90
21897;DHT22;11113;48.662;9.056;2022-07-22T08:14:51;26.60;99.90
21897;DHT22;11113;48.662;9.056;2022-07-22T08:17:20;26.70;99.90
21897;DHT22;11113;48.662;9.056;2022-07-22T08:19:46;26.60;99.90
21897;DHT22;11113;48.662;9.056;2022-07-22T08:22:14;26.60;99.90
21897;DHT22;11113;48.662;9.056;2022-07-22T08:24:43;26.60;99.90
21897;DHT22;11113;48.662;9.056;2022-07-22T08:27:14;26.60;99.90
21897;DHT22;11113;48.662;9.056;2022-07-22T08:29:41;26.60;99.90
21897;DHT22;11113;48.662;9.056;2022-07-22T08:32:18;26.60;99.90
21897;DHT22;11113;48.662;9.056;2022-07-22T08:34:44;26.60;99.90
21897;DHT22;11113;48.662;9.056;2022-07-22T08:37:10;26.60;99.90
21897;DHT22;11113;48.662;9.056;2022-07-22T08:39:37;26.70;99.90
21897;DHT22;11113;48.662;9.056;2022-07-22T08:42:03;26.60;99.90
21897;DHT22;11113;48.662;9.056;2022-07-22T08:44:33;26.60;99.90
21897;DHT22;11113;48.662;9.056;2022-07-22T08:47:00;26.60;99.90
21897;DHT22;11113;48.662;9.056;2022-07-22T08:49:32;26.60;99.90
21897;DHT22;11113;48.662;9.056;2022-07-22T08:52:00;26.60;99.90
21897;DHT22;11113;48.662;9.056;2022-07-22T08:54:27;26.60;99.90
21897;DHT22;11113;48.662;9.056;2022-07-22T08:56:55;26.60;99.90
21897;DHT22;11113;48.662;9.056;2022-07-22T08:59:22;26.60;99.90
21897;DHT22;11113;48.662;9.056;2022-07-22T09:02:05;26.50;99.90
21897;DHT22;11113;48.662;9.056;2022-07-22T09:04:53;26.50;99.90
21897;DHT22;11113;48.662;9.056;2022-07-22T09:10:11;26.60;99.90
21897;DHT22;11113;48.662;9.056;2022-07-22T09:12:51;26.60;99.90
21897;DHT22;11113;48.662;9.056;2022-07-22T09:15:29;26.60;99.90
21897;DHT22;11113;48.662;9.056;2022-07-22T09:18:02;26.60;99.90
21897;DHT22;11113;48.662;9.056;2022-07-22T09:20:29;26.60;99.90
21897;DHT22;11113;48.662;9.056;2022-07-22T09:22:58;26.50;99.90
21897;DHT22;11113;48.662;9.056;2022-07-22T09:25:44;26.60;99.90
21897;DHT22;11113;48.662;9.056;2022-07-22T09:28:23;26.70;99.90
21897;DHT22;11113;48.662;9.056;2022-07-22T09:30:52;26.70;99.90
21897;DHT22;11113;48.662;9.056;2022-07-22T09:33:19;26.70;99.90
21897;DHT22;11113;48.662;9.056;2022-07-22T09:35:47;26.70;99.90
21897;DHT22;11113;48.662;9.056;2022-07-22T09:38:16;26.80;99.90
21897;DHT22;11113;48.662;9.056;2022-07-22T09:40:45;26.70;99.90
21897;DHT22;11113;48.662;9.056;2022-07-22T09:43:17;26.70;99.90
21897;DHT22;11113;48.662;9.056;2022-07-22T09:45:56;26.70;99.90
21897;DHT22;11113;48.662;9.056;2022-07-22T09:48:23;26.70;99.90
21897;DHT22;11113;48.662;9.056;2022-07-22T09:50:51;26.70;99.90
21897;DHT22;11113;48.662;9.056;2022-07-22T09:53:19;26.70;99.90
21897;DHT22;11113;48.662;9.056;2022-07-22T09:55:47;26.80;99.90
21897;DHT22;11113;48.662;9.056;2022-07-22T09:58:13;26.70;99.90
21897;DHT22;11113;48.662;9.056;2022-07-22T10:00:40;26.80;99.90
21897;DHT22;11113;48.662;9.056;2022-07-22T10:03:12;26.70;99.90
21897;DHT22;11113;48.662;9.056;2022-07-22T10:05:43;26.70;99.90
21897;DHT22;11113;48.662;9.056;2022-07-22T10:08:14;26.80;99.90
21897;DHT22;11113;48.662;9.056;2022-07-22T10:10:40;26.80;99.90
21897;DHT22;11113;48.662;9.056;2022-07-22T10:13:07;26.80;99.90
21897;DHT22;11113;48.662;9.056;2022-07-22T10:15:34;26.80;99.90
21897;DHT22;11113;48.662;9.056;2022-07-22T10:18:07;26.80;99.90
21897;DHT22;11113;48.662;9.056;2022-07-22T10:20:38;26.70;99.90
21897;DHT22;11113;48.662;9.056;2022-07-22T10:23:06;26.80;99.90
21897;DHT22;11113;48.662;9.056;2022-07-22T10:25:54;26.80;99.90
21897;DHT22;11113;48.662;9.056;2022-07-22T10:28:24;26.80;99.90
21897;DHT22;11113;48.662;9.056;2022-07-22T10:30:52;26.80;99.90
21897;DHT22;11113;48.662;9.056;2022-07-22T10:33:20;26.80;99.90
21897;DHT22;11113;48.662;9.056;2022-07-22T10:36:00;26.80;99.90
21897;DHT22;11113;48.662;9.056;2022-07-22T10:38:28;26.70;99.90
21897;DHT22;11113;48.662;9.056;2022-07-22T10:41:01;26.70;99.90
21897;DHT22;11113;48.662;9.056;2022-07-22T10:43:45;26.70;99.90
21897;DHT22;11113;48.662;9.056;2022-07-22T10:46:14;26.70;99.90
21897;DHT22;11113;48.662;9.056;2022-07-22T10:53:56;26.80;99.90
21897;DHT22;11113;48.662;9.056;2022-07-22T10:56:32;26.80;99.90
21897;DHT22;11113;48.662;9.056;2022-07-22T10:59:16;26.80;99.90
21897;DHT22;11113;48.662;9.056;2022-07-22T11:01:50;26.80;99.90
21897;DHT22;11113;48.662;9.056;2022-07-22T11:04:22;26.80;99.90
21897;DHT22;11113;48.662;9.056;2022-07-22T11:06:55;26.90;99.90
21897;DHT22;11113;48.662;9.056;2022-07-22T11:09:30;26.80;99.90
21897;DHT22;11113;48.662;9.056;2022-07-22T11:11:57;26.80;99.90
21897;DHT22;11113;48.662;9.056;2022-07-22T11:14:31;26.80;99.90
21897;DHT22;11113;48.662;9.056;2022-07-22T11:17:03;26.80;99.90
21897;DHT22;11113;48.662;9.056;2022-07-22T11:19:34;26.80;99.90
21897;DHT22;11113;48.662;9.056;2022-07-22T11:22:10;26.70;99.90
21897;DHT22;11113;48.662;9.056;2022-07-22T11:24:37;26.80;99.90
21897;DHT22;11113;48.662;9.056;2022-07-22T11:27:06;26.80;99.90
21897;DHT22;11113;48.662;9.056;2022-07-22T11:29:39;26.80;99.90
21897;DHT22;11113;48.662;9.056;2022-07-22T11:32:09;26.70;99.90
21897;DHT22;11113;48.662;9.056;2022-07-22T11:34:38;26.80;99.90
21897;DHT22;11113;48.662;9.056;2022-07-22T11:37:08;26.70;99.90
21897;DHT22;11113;48.662;9.056;2022-07-22T11:39:34;26.80;99.90
21897;DHT22;11113;48.662;9.056;2022-07-22T11:42:01;26.70;99.90
21897;DHT22;11113;48.662;9.056;2022-07-22T11:44:31;26.70;99.90
21897;DHT22;11113;48.662;9.056;2022-07-22T11:46:59;26.80;99.90
21897;DHT22;11113;48.662;9.056;2022-07-22T11:49:28;26.80;99.90
21897;DHT22;11113;48.662;9.056;2022-07-22T11:51:55;26.80;99.90
21897;DHT22;11113;48.662;9.056;2022-07-22T11:54:21;26.80;99.90
21897;DHT22;11113;48.662;9.056;2022-07-22T11:56:47;26.80;99.90
21897;DHT22;11113;48.662;9.056;2022-07-22T11:59:14;26.80;99.90
21897;DHT22;11113;48.662;9.056;2022-07-22T12:01:44;26.80;99.90
21897;DHT22;11113;48.662;9.056;2022-07-22T12:04:14;26.80;99.90
21897;DHT22;11113;48.662;9.056;2022-07-22T12:06:43;26.90;99.90
21897;DHT22;11113;48.662;9.056;2022-07-22T12:09:13;26.90;99.90
21897;DHT22;11113;48.662;9.056;2022-07-22T12:11:44;26.90;99.90
21897;DHT22;11113;48.662;9.056;2022-07-22T12:14:24;27.00;99.90
21897;DHT22;11113;48.662;9.056;2022-07-22T12:19:26;27.00;99.90
21897;DHT22;11113;48.662;9.056;2022-07-22T12:21:59;27.10;99.90
21897;DHT22;11113;48.662;9.056;2022-07-22T12:24:41;27.10;99.90
21897;DHT22;11113;48.662;9.056;2022-07-22T12:27:09;27.20;99.90
21897;DHT22;11113;48.662;9.056;2022-07-22T12:32:26;27.10;99.90
21897;DHT22;11113;48.662;9.056;2022-07-22T12:34:58;27.20;99.90
21897;DHT22;11113;48.662;9.056;2022-07-22T12:37:33;27.10;99.90
21897;DHT22;11113;48.662;9.056;2022-07-22T12:40:08;27.10;99.90
21897;DHT22;11113;48.662;9.056;2022-07-22T12:42:46;27.10;99.90
21897;DHT22;11113;48.662;9.056;2022-07-22T12:45:26;27.10;99.90
21897;DHT22;11113;48.662;9.056;2022-07-22T12:47:56;27.10;99.90
21897;DHT22;11113;48.662;9.056;2022-07-22T12:50:37;27.00;99.90
21897;DHT22;11113;48.662;9.056;2022-07-22T12:53:09;27.00;99.90
21897;DHT22;11113;48.662;9.056;2022-07-22T12:58:07;27.00;99.90
21897;DHT22;11113;48.662;9.056;2022-07-22T13:00:45;27.00;99.90
21897;DHT22;11113;48.662;9.056;2022-07-22T13:03:15;26.90;99.90
21897;DHT22;11113;48.662;9.056;2022-07-22T13:05:46;26.90;99.90
21897;DHT22;11113;48.662;9.056;2022-07-22T13:08:13;26.90;99.90
21897;DHT22;11113;48.662;9.056;2022-07-22T13:10:39;26.90;99.90
21897;DHT22;11113;48.662;9.056;2022-07-22T13:13:05;26.90;99.90
21897;DHT22;11113;48.662;9.056;2022-07-22T13:15:32;26.90;99.90
21897;DHT22;11113;48.662;9.056;2022-07-22T13:17:58;26.90;99.90
21897;DHT22;11113;48.662;9.056;2022-07-22T13:20:23;26.90;99.90
21897;DHT22;11113;48.662;9.056;2022-07-22T13:22:49;26.90;99.90
21897;DHT22;11113;48.662;9.056;2022-07-22T13:25:14;26.90;99.90
21897;DHT22;11113;48.662;9.056;2022-07-22T13:27:40;26.90;99.90
21897;DHT22;11113;48.662;9.056;2022-07-22T13:30:07;26.90;99.90
21897;DHT22;11113;48.662;9.056;2022-07-22T13:32:35;26.90;99.90
21897;DHT22;11113;48.662;9.056;2022-07-22T13:35:01;26.90;99.90
21897;DHT22;11113;48.662;9.056;2022-07-22T13:37:28;26.90;99.90
21897;DHT22;11113;48.662;9.056;2022-07-22T13:39:53;26.90;99.90
21897;DHT22;11113;48.662;9.056;2022-07-22T13:42:19;26.90;99.90
21897;DHT22;11113;48.662;9.056;2022-07-22T13:44:46;26.80;99.90
21897;DHT22;11113;48.662;9.056;2022-07-22T13:47:12;26.80;99.90
21897;DHT22;11113;48.662;9.056;2022-07-22T13:49:38;26.90;99.90
21897;DHT22;11113;48.662;9.056;2022-07-22T13:52:07;26.90;99.90
21897;DHT22;11113;48.662;9.056;2022-07-22T13:54:33;26.90;99.90
21897;DHT22;11113;48.662;9.056;2022-07-22T13:57:00;27.00;99.90
21897;DHT22;11113;48.662;9.056;2022-07-22T13:59:26;27.00;99.90
21897;DHT22;11113;48.662;9.056;2022-07-22T14:01:53;27.00;99.90
21897;DHT22;11113;48.662;9.056;2022-07-22T14:04:19;27.00;99.90
21897;DHT22;11113;48.662;9.056;2022-07-22T14:06:44;26.80;99.90
21897;DHT22;11113;48.662;9.056;2022-07-22T14:09:10;26.80;99.90
21897;DHT22;11113;48.662;9.056;2022-07-22T14:11:36;26.90;99.90
21897;DHT22;11113;48.662;9.056;2022-07-22T14:14:02;26.80;99.90
21897;DHT22;11113;48.662;9.056;2022-07-22T14:16:27;26.80;99.90
21897;DHT22;11113;48.662;9.056;2022-07-22T14:19:10;26.90;99.90
21897;DHT22;11113;48.662;9.056;2022-07-22T14:21:40;26.90;99.90
21897;DHT22;11113;48.662;9.056;2022-07-22T14:24:08;26.90;99.90
21897;DHT22;11113;48.662;9.056;2022-07-22T14:26:35;26.90;99.90
21897;DHT22;11113;48.662;9.056;2022-07-22T14:29:02;26.90;99.90
21897;DHT22;11113;48.662;9.056;2022-07-22T14:31:28;26.90;99.90
21897;DHT22;11113;48.662;9.056;2022-07-22T14:33:55;26.90;99.90
